Time;durP1;ratioP1;P1;durP2;ratioP2;P2;SDS_P1;SDS_P2;PMS_P1;PMS_P2;Temp;Humidity;BMP_temperature;BMP_pressure;BME280_temperature;BME280_humidity;BME280_pressure;Samples;Min_cycle;Max_cycle;Signal;HPM_P1;HPM_P2
2022/03/18 00:00:21;;;;;;;;;29.00;26.25;;;;;10.98;54.80;103102.47;2112623;27;47790;-61
2022/03/18 00:01:21;;;;;;;;;23.00;21.00;;;;;10.97;54.99;103100.69;2099822;28;47515;-58
2022/03/18 00:02:22;;;;;;;;;25.50;23.25;;;;;10.96;54.75;103101.56;2100457;28;47458;-59
2022/03/18 00:03:23;;;;;;;;;25.00;23.50;;;;;10.95;55.10;103096.22;2107171;27;47390;-57
2022/03/18 00:04:23;;;;;;;;;23.75;23.25;;;;;10.94;55.02;103100.63;2106145;27;47688;-62
2022/03/18 00:05:24;;;;;;;;;26.75;25.25;;;;;10.94;55.00;103097.97;2106000;27;47721;-59
2022/03/18 00:06:25;;;;;;;;;26.80;25.00;;;;;10.94;55.09;103097.09;2112877;27;47556;-61
2022/03/18 00:07:26;;;;;;;;;27.25;24.00;;;;;10.95;55.19;103104.19;2112391;27;47259;-60
2022/03/18 00:08:27;;;;;;;;;27.20;24.20;;;;;10.95;55.29;103099.78;2113556;27;47748;-60
2022/03/18 00:09:27;;;;;;;;;29.75;28.00;;;;;10.93;54.93;103100.63;2112706;27;47961;-59
2022/03/18 00:10:29;;;;;;;;;29.50;27.75;;;;;10.93;54.67;103103.28;2113797;27;47496;-60
2022/03/18 00:11:29;;;;;;;;;31.80;28.00;;;;;10.92;55.00;103105.00;2112706;27;47650;-59
2022/03/18 00:12:30;;;;;;;;;33.50;32.00;;;;;10.90;54.95;103101.44;2099295;28;47144;-59
2022/03/18 00:13:30;;;;;;;;;27.25;27.00;;;;;10.90;55.14;103105.00;2100144;28;47480;-59
2022/03/18 00:14:31;;;;;;;;;27.50;26.75;;;;;10.89;55.16;103107.63;2113521;27;48149;-59
2022/03/18 00:15:32;;;;;;;;;26.25;26.00;;;;;10.88;54.91;103106.75;2112376;27;47555;-59
2022/03/18 00:16:32;;;;;;;;;25.75;24.00;;;;;10.87;54.92;103104.94;2113618;27;47507;-59
2022/03/18 00:17:32;;;;;;;;;28.00;25.25;;;;;10.88;55.06;103105.84;2110000;27;46745;-57
2022/03/18 00:18:33;;;;;;;;;24.75;22.75;;;;;10.86;55.00;103097.84;2112647;27;47765;-60
2022/03/18 00:19:35;;;;;;;;;29.00;26.00;;;;;10.87;54.85;103094.31;2108594;27;47689;-58
2022/03/18 00:20:35;;;;;;;;;21.80;21.80;;;;;10.86;55.03;103099.63;2113893;27;47629;-58
2022/03/18 00:21:36;;;;;;;;;28.00;28.00;;;;;10.85;55.05;103101.38;2093505;28;47805;-60
2022/03/18 00:22:38;;;;;;;;;24.60;23.80;;;;;10.85;55.10;103092.53;2095727;28;47483;-61
2022/03/18 00:23:39;;;;;;;;;25.80;25.80;;;;;10.84;54.79;103086.31;2112687;27;47571;-57
2022/03/18 00:24:39;;;;;;;;;29.50;28.75;;;;;10.85;55.01;103093.41;2113801;27;47337;-60
2022/03/18 00:25:39;;;;;;;;;27.25;25.25;;;;;10.85;54.99;103093.41;2111657;27;47503;-60
2022/03/18 00:26:40;;;;;;;;;28.75;25.75;;;;;10.84;54.84;103091.63;2113690;27;47602;-59
2022/03/18 00:27:45;;;;;;;;;28.75;25.25;;;;;10.84;54.88;103090.75;2111482;27;47494;-60
2022/03/18 00:28:45;;;;;;;;;25.00;23.20;;;;;10.82;54.76;103098.69;2113723;27;48087;-60
2022/03/18 00:29:45;;;;;;;;;29.50;28.00;;;;;10.81;54.75;103102.22;2112479;27;47893;-58
2022/03/18 00:30:48;;;;;;;;;26.75;24.50;;;;;10.81;55.14;103101.31;2113966;27;47882;-59
2022/03/18 00:31:48;;;;;;;;;28.80;25.80;;;;;10.80;55.25;103096.88;2112199;27;47550;-61
2022/03/18 00:32:51;;;;;;;;;25.75;25.75;;;;;10.79;55.00;103101.28;2095635;28;48255;-61
2022/03/18 00:33:51;;;;;;;;;25.40;25.20;;;;;10.80;54.87;103115.47;2094666;27;48080;-60
2022/03/18 00:34:52;;;;;;;;;29.50;27.50;;;;;10.79;54.83;103111.91;2113878;27;47956;-59
2022/03/18 00:35:52;;;;;;;;;31.75;27.25;;;;;10.76;54.71;103109.19;2111478;27;48015;-59
2022/03/18 00:36:54;;;;;;;;;29.00;27.25;;;;;10.76;55.14;103117.16;2103652;28;47771;-58
2022/03/18 00:37:54;;;;;;;;;33.00;28.40;;;;;10.76;55.17;103113.63;2103725;28;48321;-57
2022/03/18 00:38:55;;;;;;;;;24.25;22.50;;;;;10.76;55.20;103113.63;2108749;27;47764;-55
2022/03/18 00:39:55;;;;;;;;;27.00;26.00;;;;;10.76;55.09;103118.94;2113657;27;47459;-58
2022/03/18 00:40:56;;;;;;;;;30.75;30.00;;;;;10.74;55.08;103116.25;2113219;27;47898;-56
2022/03/18 00:41:56;;;;;;;;;27.50;26.75;;;;;10.73;54.95;103110.94;2113170;27;47721;-59
2022/03/18 00:42:57;;;;;;;;;27.25;25.00;;;;;10.72;54.83;103112.69;2112806;27;47736;-58
2022/03/18 00:43:57;;;;;;;;;32.75;30.25;;;;;10.72;55.13;103114.44;2104143;28;47180;-58
2022/03/18 00:45:02;;;;;;;;;27.25;25.25;;;;;10.71;55.14;103110.91;2104103;27;47672;-59
2022/03/18 00:46:02;;;;;;;;;29.80;28.20;;;;;10.72;55.00;103119.75;2091776;28;47183;-57
2022/03/18 00:47:03;;;;;;;;;29.50;26.50;;;;;10.70;55.11;103117.09;2083263;28;47328;-58
2022/03/18 00:52:04;;;;;;;;;29.20;25.20;;;;;10.61;55.19;103108.97;2111762;27;47707;-58
2022/03/18 00:53:05;;;;;;;;;30.40;26.60;;;;;10.61;54.85;103115.16;2112361;27;47803;-60
2022/03/18 00:54:05;;;;;;;;;29.75;24.75;;;;;10.62;55.02;103113.41;2113255;27;47461;-59
2022/03/18 00:55:06;;;;;;;;;27.50;25.75;;;;;10.61;55.13;103109.84;2112276;27;48165;-61
2022/03/18 00:56:06;;;;;;;;;29.20;28.60;;;;;10.61;55.11;103114.28;2109766;27;47523;-58
2022/03/18 00:57:07;;;;;;;;;28.00;26.00;;;;;10.61;55.14;103120.47;2112825;27;47696;-60
2022/03/18 00:58:07;;;;;;;;;23.75;22.50;;;;;10.61;55.08;103115.16;2113441;27;48077;-61
2022/03/18 00:59:08;;;;;;;;;30.00;29.25;;;;;10.61;55.12;103108.97;2094020;28;47583;-60
2022/03/18 01:00:08;;;;;;;;;27.25;24.25;;;;;10.60;55.09;103118.69;2095254;28;47681;-60
2022/03/18 01:01:10;;;;;;;;;30.00;29.25;;;;;10.60;54.84;103112.50;2111095;27;47687;-59
2022/03/18 01:02:11;;;;;;;;;23.80;23.80;;;;;10.60;55.18;103113.38;2113578;27;47425;-61
2022/03/18 01:03:15;;;;;;;;;26.50;24.75;;;;;10.60;55.10;103108.06;2111842;27;47559;-58
2022/03/18 01:04:16;;;;;;;;;23.60;23.60;;;;;10.60;55.00;103110.72;2110240;27;47480;-60
2022/03/18 01:05:17;;;;;;;;;29.25;29.25;;;;;10.59;55.09;103113.34;2109658;27;47551;-57
2022/03/18 01:06:17;;;;;;;;;26.40;23.80;;;;;10.59;54.92;103111.59;2113812;27;47412;-59
2022/03/18 01:07:18;;;;;;;;;29.25;27.25;;;;;10.58;54.95;103112.47;2113423;27;47728;-61
2022/03/18 01:08:18;;;;;;;;;30.75;29.25;;;;;10.58;55.12;103106.25;2113628;27;46999;-59
2022/03/18 01:09:20;;;;;;;;;25.00;25.00;;;;;10.57;55.24;103107.13;2108203;27;47825;-59
2022/03/18 01:10:20;;;;;;;;;22.40;22.40;;;;;10.58;54.93;103115.13;2112414;27;47785;-60
2022/03/18 01:11:21;;;;;;;;;30.50;28.50;;;;;10.57;55.16;103105.38;2113808;27;47596;-61
2022/03/18 01:12:21;;;;;;;;;23.75;23.75;;;;;10.58;55.19;103111.56;2113767;27;47890;-59
2022/03/18 01:13:22;;;;;;;;;26.00;23.00;;;;;10.57;55.18;103109.78;2113542;27;46425;-62
2022/03/18 01:14:24;;;;;;;;;28.00;25.60;;;;;10.57;54.92;103116.00;2113730;27;48584;-57
2022/03/18 01:15:24;;;;;;;;;25.20;22.80;;;;;10.57;55.09;103116.00;2113448;27;47811;-60
2022/03/18 01:16:24;;;;;;;;;24.75;23.25;;;;;10.58;55.43;103122.19;2112748;27;47684;-62
2022/03/18 01:17:25;;;;;;;;;15.50;13.50;;;;;10.57;55.13;103115.09;2113097;27;47867;-62
2022/03/18 01:18:25;;;;;;;;;25.00;22.25;;;;;10.55;55.30;103111.53;2113639;27;48174;-60
2022/03/18 01:19:25;;;;;;;;;30.75;28.50;;;;;10.54;55.15;103109.72;2113720;27;47426;-61
2022/03/18 01:20:26;;;;;;;;;25.00;23.75;;;;;10.53;55.23;103114.13;2113344;27;47914;-61
2022/03/18 01:21:26;;;;;;;;;27.00;25.50;;;;;10.51;55.20;103110.56;2104292;28;47776;-61
2022/03/18 01:22:27;;;;;;;;;27.75;25.50;;;;;10.50;54.74;103118.50;2104805;28;47836;-61
2022/03/18 01:23:27;;;;;;;;;23.75;23.75;;;;;10.48;55.17;103120.25;2113581;27;47231;-59
2022/03/18 01:24:27;;;;;;;;;29.25;27.25;;;;;10.47;55.21;103126.44;2113408;27;47382;-60
2022/03/18 01:25:28;;;;;;;;;30.25;25.50;;;;;10.47;54.99;103127.31;2113279;27;47206;-61
2022/03/18 01:26:29;;;;;;;;;25.25;22.00;;;;;10.46;55.29;103128.19;2113605;27;47714;-61
2022/03/18 01:27:30;;;;;;;;;30.00;29.00;;;;;10.45;55.32;103128.16;2113485;27;48121;-60
2022/03/18 01:28:31;;;;;;;;;29.60;28.40;;;;;10.44;55.23;103126.38;2113572;27;47941;-61
2022/03/18 01:29:32;;;;;;;;;26.25;24.50;;;;;10.41;55.26;103124.53;2113593;27;47562;-60
2022/03/18 01:30:34;;;;;;;;;29.80;24.20;;;;;10.39;55.03;103117.44;2113504;27;47726;-59
2022/03/18 01:31:34;;;;;;;;;26.20;24.40;;;;;10.37;55.46;103121.81;2113524;27;48148;-59
2022/03/18 01:32:35;;;;;;;;;30.75;27.75;;;;;10.37;55.42;103122.72;2113779;27;47811;-59
2022/03/18 01:33:36;;;;;;;;;31.00;27.75;;;;;10.37;55.25;103127.13;2113637;27;47683;-61
2022/03/18 01:34:37;;;;;;;;;23.40;21.60;;;;;10.36;55.21;103120.03;2113385;27;46732;-60
2022/03/18 01:35:37;;;;;;;;;18.75;16.50;;;;;10.36;55.39;103120.94;2093208;28;47463;-56
2022/03/18 01:36:38;;;;;;;;;22.25;22.00;;;;;10.36;55.42;103126.25;2086865;28;47400;-59
2022/03/18 01:37:38;;;;;;;;;24.75;22.25;;;;;10.37;55.27;103121.81;2104570;28;47775;-59
2022/03/18 01:38:39;;;;;;;;;25.50;25.00;;;;;10.36;55.44;103131.53;2104527;28;47681;-59
2022/03/18 01:39:39;;;;;;;;;28.50;26.25;;;;;10.35;55.38;103126.22;2113613;27;47575;-60
2022/03/18 01:40:40;;;;;;;;;24.25;24.25;;;;;10.34;55.41;103120.00;2113411;27;48014;-57
2022/03/18 01:41:40;;;;;;;;;25.00;22.75;;;;;10.33;55.49;103120.88;2113296;27;47236;-59
2022/03/18 01:42:41;;;;;;;;;23.75;22.00;;;;;10.32;55.50;103121.75;2087144;28;45461;-61
2022/03/18 01:43:46;;;;;;;;;24.00;24.00;;;;;10.32;55.41;103117.34;2087025;28;47977;-61
2022/03/18 01:44:47;;;;;;;;;29.40;25.40;;;;;10.33;55.40;103120.88;2113199;27;47605;-62
2022/03/18 01:45:49;;;;;;;;;26.25;23.00;;;;;10.32;55.52;103119.09;2113215;27;48380;-58
2022/03/18 01:46:49;;;;;;;;;27.00;26.20;;;;;10.32;55.47;103120.00;2113136;27;47766;-61
2022/03/18 01:47:49;;;;;;;;;17.25;17.00;;;;;10.32;55.59;103116.44;2113339;27;47544;-60
2022/03/18 01:48:50;;;;;;;;;26.00;19.50;;;;;10.31;55.71;103114.66;2113760;27;46414;-60
2022/03/18 01:49:51;;;;;;;;;22.75;20.75;;;;;10.33;55.42;103123.53;2113115;27;47399;-59
2022/03/18 01:50:52;;;;;;;;;27.40;26.60;;;;;10.33;55.67;103118.22;2113359;27;47647;-60
2022/03/18 01:51:52;;;;;;;;;24.50;23.00;;;;;10.34;55.50;103125.31;2113207;27;47850;-60
2022/03/18 01:52:53;;;;;;;;;23.25;23.25;;;;;10.35;55.53;103118.25;2113699;27;47607;-57
2022/03/18 01:54:44;;;;;;;;;25.00;23.50;;;;;10.35;55.34;103126.22;2113075;27;47510;-60
2022/03/18 01:55:16;;;;;;;;;22.00;22.00;;;;;10.35;55.53;103123.56;2104622;28;47509;-61
2022/03/18 01:56:16;;;;;;;;;22.40;22.00;;;;;10.35;55.53;103124.44;2109167;27;48150;-60
2022/03/18 01:57:20;;;;;;;;;25.50;23.75;;;;;10.36;55.49;103128.00;2095165;28;47891;-59
2022/03/18 01:58:21;;;;;;;;;26.00;26.00;;;;;10.36;55.40;103128.88;2095983;27;47684;-59
2022/03/18 01:59:22;;;;;;;;;19.80;19.20;;;;;10.36;55.62;103120.94;2110982;27;48098;-59
2022/03/18 02:00:22;;;;;;;;;24.00;21.00;;;;;10.36;55.68;103125.34;2113152;27;47746;-59
2022/03/18 02:01:23;;;;;;;;;25.00;23.00;;;;;10.37;55.38;103130.69;2113023;27;48299;-61
2022/03/18 02:02:24;;;;;;;;;26.25;25.75;;;;;10.38;55.54;103126.25;2112896;27;47947;-61
2022/03/18 02:03:25;;;;;;;;;28.20;25.60;;;;;10.38;55.60;103127.16;2113494;27;47950;-60
2022/03/18 02:04:25;;;;;;;;;26.00;23.75;;;;;10.38;55.39;103134.22;2113028;27;47515;-61
2022/03/18 02:05:26;;;;;;;;;27.00;23.75;;;;;10.39;55.42;103131.59;2113223;27;47101;-59
2022/03/18 02:06:26;;;;;;;;;21.25;20.75;;;;;10.40;55.36;103125.41;2112924;27;47721;-62
2022/03/18 02:07:26;;;;;;;;;23.00;20.00;;;;;10.39;55.30;103113.00;2113355;27;47830;-58
2022/03/18 02:08:28;;;;;;;;;27.00;24.00;;;;;10.39;55.25;103122.72;2113029;27;47644;-59
2022/03/18 02:09:31;;;;;;;;;27.80;26.00;;;;;10.37;55.49;103120.06;2113164;27;48147;-56
2022/03/18 02:10:31;;;;;;;;;27.00;24.40;;;;;10.37;55.30;103122.72;2112957;27;48089;-61
2022/03/18 02:11:31;;;;;;;;;25.75;25.75;;;;;10.37;55.34;103122.72;2093599;28;47710;-59
2022/03/18 02:12:32;;;;;;;;;26.00;23.50;;;;;10.37;55.39;103120.06;2094034;28;48066;-61
2022/03/18 02:13:33;;;;;;;;;23.80;22.20;;;;;10.36;55.40;103120.94;2113027;27;47881;-60
2022/03/18 02:14:38;;;;;;;;;25.50;22.25;;;;;10.34;55.81;103120.00;2113205;27;47700;-61
2022/03/18 02:15:39;;;;;;;;;24.20;23.80;;;;;10.33;55.24;103126.19;2113067;27;47914;-61
2022/03/18 02:16:40;;;;;;;;;27.00;26.75;;;;;10.31;55.64;103120.84;2112676;27;47589;-61
2022/03/18 02:17:40;;;;;;;;;28.40;25.80;;;;;10.31;55.56;103125.28;2113145;27;47764;-61
2022/03/18 02:18:41;;;;;;;;;19.75;19.75;;;;;10.31;55.51;103127.94;2112164;27;47568;-60
2022/03/18 02:19:43;;;;;;;;;29.00;27.25;;;;;10.29;55.46;103122.59;2113071;27;47847;-59
2022/03/18 02:20:43;;;;;;;;;27.20;26.20;;;;;10.29;55.60;103127.91;2112940;27;47493;-57
2022/03/18 02:21:43;;;;;;;;;23.75;23.75;;;;;10.28;55.42;103133.16;2113096;27;47501;-60
2022/03/18 02:22:45;;;;;;;;;27.50;25.00;;;;;10.28;55.67;103136.69;2113068;27;47635;-60
2022/03/18 02:23:45;;;;;;;;;28.00;26.40;;;;;10.28;55.47;103134.03;2113266;27;47532;-61
2022/03/18 02:24:48;;;;;;;;;30.25;27.25;;;;;10.28;55.86;103133.16;2112531;27;47594;-61
2022/03/18 02:25:48;;;;;;;;;33.00;28.00;;;;;10.26;55.75;103135.78;2110159;27;47354;-60
2022/03/18 02:26:50;;;;;;;;;27.50;25.50;;;;;10.26;55.51;103135.78;2112802;27;47388;-61
2022/03/18 02:27:55;;;;;;;;;30.80;28.00;;;;;10.25;55.89;103134.00;2094675;28;48257;-60
2022/03/18 02:28:57;;;;;;;;;23.40;20.60;;;;;10.24;55.63;103134.88;2096194;27;48010;-60
2022/03/18 02:29:58;;;;;;;;;27.20;27.20;;;;;10.24;55.75;103137.53;2112866;27;47541;-61
2022/03/18 02:30:59;;;;;;;;;25.25;20.75;;;;;10.23;55.61;103135.75;2113351;27;48191;-59
2022/03/18 02:32:04;;;;;;;;;26.80;22.60;;;;;10.24;55.54;103136.63;2112918;27;48030;-60
2022/03/18 02:33:05;;;;;;;;;28.60;26.20;;;;;10.23;55.57;103135.75;2112820;27;47799;-61
2022/03/18 02:34:05;;;;;;;;;29.50;28.50;;;;;10.22;56.01;103136.59;2113322;27;47658;-61
2022/03/18 02:35:06;;;;;;;;;34.75;28.00;;;;;10.20;55.88;103135.66;2112861;27;47567;-60
2022/03/18 02:36:06;;;;;;;;;30.75;28.75;;;;;10.19;55.62;103132.97;2113333;27;47648;-59
2022/03/18 02:37:08;;;;;;;;;28.00;28.00;;;;;10.18;55.71;103137.38;2112836;27;47171;-60
2022/03/18 02:38:08;;;;;;;;;29.80;27.60;;;;;10.17;55.89;103130.31;2113357;27;47508;-60
2022/03/18 02:39:09;;;;;;;;;29.75;29.75;;;;;10.16;55.88;103125.81;2112971;27;47899;-60
2022/03/18 02:40:10;;;;;;;;;31.50;28.25;;;;;10.15;55.76;103118.72;2113094;27;47860;-61
2022/03/18 02:41:11;;;;;;;;;29.25;27.75;;;;;10.15;55.64;103123.16;2112797;27;47667;-60
2022/03/18 02:42:12;;;;;;;;;23.60;23.60;;;;;10.14;55.83;103119.59;2112984;27;48117;-60
2022/03/18 02:43:12;;;;;;;;;26.75;26.75;;;;;10.14;55.63;103111.66;2113162;27;47574;-60
2022/03/18 02:44:13;;;;;;;;;28.25;28.25;;;;;10.13;55.82;103115.16;2113364;27;47463;-61
2022/03/18 02:45:13;;;;;;;;;29.00;28.50;;;;;10.12;55.77;103113.38;2112702;27;47365;-61
2022/03/18 02:46:16;;;;;;;;;30.00;28.00;;;;;10.11;55.75;103114.25;2111994;27;47757;-60
2022/03/18 02:47:16;;;;;;;;;29.00;26.00;;;;;10.10;55.90;103115.13;2107912;27;47642;-60
2022/03/18 02:48:16;;;;;;;;;31.25;27.50;;;;;10.07;56.09;103109.75;2104227;28;47495;-61
2022/03/18 02:49:19;;;;;;;;;29.25;25.75;;;;;10.07;55.87;103112.41;2103894;28;48167;-60
2022/03/18 02:50:20;;;;;;;;;29.20;27.60;;;;;10.05;55.95;103118.56;2113243;27;47505;-59
2022/03/18 02:51:20;;;;;;;;;30.75;29.50;;;;;10.05;56.01;103121.22;2112763;27;47624;-58
2022/03/18 02:52:20;;;;;;;;;28.25;26.75;;;;;10.05;55.82;103116.81;2112798;27;47510;-60
2022/03/18 02:53:21;;;;;;;;;35.00;32.25;;;;;10.05;55.86;103118.56;2112750;27;46751;-60
2022/03/18 02:54:22;;;;;;;;;32.50;29.25;;;;;10.05;56.10;103121.22;2112770;27;47283;-60
2022/03/18 02:55:22;;;;;;;;;29.40;29.40;;;;;10.02;56.04;103120.25;2112994;27;47562;-59
2022/03/18 02:56:23;;;;;;;;;31.75;31.50;;;;;10.03;56.01;103121.16;2112941;27;47684;-61
2022/03/18 02:57:23;;;;;;;;;32.50;29.50;;;;;10.01;55.89;103121.13;2102912;28;47362;-60
2022/03/18 02:58:24;;;;;;;;;29.50;27.75;;;;;10.02;56.13;103122.03;2103405;28;48261;-60
2022/03/18 02:59:24;;;;;;;;;36.00;34.25;;;;;10.02;56.28;103119.38;2112251;27;47560;-59
2022/03/18 03:00:25;;;;;;;;;34.25;28.00;;;;;10.02;56.12;103119.38;2112700;27;47323;-60
2022/03/18 03:01:27;;;;;;;;;31.25;29.00;;;;;10.01;56.05;103121.13;2103989;28;47691;-59
2022/03/18 03:02:27;;;;;;;;;29.00;28.20;;;;;10.00;56.04;103119.34;2104149;27;47752;-61
2022/03/18 03:03:29;;;;;;;;;29.50;28.50;;;;;9.99;56.06;103122.88;2112921;27;47531;-60
2022/03/18 03:04:29;;;;;;;;;36.80;33.00;;;;;10.00;56.06;103121.09;2112792;27;47421;-61
2022/03/18 03:08:07;;;;;;;;;36.40;34.00;;;;;9.97;55.98;103119.28;2112851;27;47069;-60
2022/03/18 03:09:08;;;;;;;;;34.75;31.75;;;;;9.97;56.12;103127.25;2112811;27;47507;-59
2022/03/18 03:10:10;;;;;;;;;38.20;32.80;;;;;9.97;56.12;103121.94;2113035;27;47969;-60
2022/03/18 03:11:10;;;;;;;;;36.40;32.60;;;;;9.97;56.13;103131.66;2112742;27;47779;-61
2022/03/18 03:12:10;;;;;;;;;29.50;28.75;;;;;9.96;56.03;103132.53;2112733;27;47866;-58
2022/03/18 03:13:11;;;;;;;;;41.00;34.00;;;;;9.93;56.28;103130.72;2112794;27;47637;-61
2022/03/18 03:14:13;;;;;;;;;42.00;36.25;;;;;9.93;56.15;103127.19;2112860;27;47962;-60
2022/03/18 03:15:13;;;;;;;;;40.80;34.60;;;;;9.91;56.07;103127.16;2113165;27;48272;-59
2022/03/18 03:16:13;;;;;;;;;38.25;33.75;;;;;9.91;56.34;103136.84;2112625;27;47704;-60
2022/03/18 03:17:14;;;;;;;;;39.00;34.50;;;;;9.90;56.26;103140.34;2103638;28;47517;-60
2022/03/18 03:18:15;;;;;;;;;37.00;32.50;;;;;9.88;56.43;103139.44;2103873;28;47934;-59
2022/03/18 03:19:16;;;;;;;;;44.20;37.80;;;;;9.88;56.31;103136.78;2112799;27;47660;-59
2022/03/18 03:20:16;;;;;;;;;38.75;34.50;;;;;9.88;56.34;103139.44;2113123;27;47760;-61
2022/03/18 03:21:17;;;;;;;;;39.75;35.00;;;;;9.87;56.55;103138.53;2113081;27;48137;-60
2022/03/18 03:22:17;;;;;;;;;42.50;37.50;;;;;9.87;56.29;103146.50;2112742;27;45820;-60
2022/03/18 03:23:19;;;;;;;;;44.50;38.25;;;;;9.87;56.36;103146.50;2112511;27;47616;-59
2022/03/18 03:24:20;;;;;;;;;39.40;35.20;;;;;9.87;56.55;103145.59;2112885;27;47344;-61
2022/03/18 03:25:20;;;;;;;;;43.50;38.50;;;;;9.87;56.32;103150.91;2112575;27;47095;-59
2022/03/18 03:26:21;;;;;;;;;44.25;38.25;;;;;9.84;56.35;103151.75;2112750;27;47467;-60
2022/03/18 03:27:21;;;;;;;;;48.75;39.25;;;;;9.83;56.36;103147.31;2112618;27;47750;-58
2022/03/18 03:28:22;;;;;;;;;47.50;40.00;;;;;9.82;56.31;103152.59;2112970;27;47974;-59
2022/03/18 03:29:23;;;;;;;;;47.60;37.40;;;;;9.80;56.47;103152.56;2112608;27;48138;-60
2022/03/18 03:30:24;;;;;;;;;46.50;40.00;;;;;9.78;56.53;103156.91;2103821;28;47809;-61
2022/03/18 03:31:25;;;;;;;;;49.20;42.00;;;;;9.76;56.35;103166.59;2103510;27;47803;-61
2022/03/18 03:32:25;;;;;;;;;50.50;41.25;;;;;9.76;56.57;103165.69;2112721;27;47666;-60
2022/03/18 03:33:26;;;;;;;;;51.75;43.25;;;;;9.73;56.56;103166.53;2112289;27;47666;-60
2022/03/18 03:34:29;;;;;;;;;43.60;37.60;;;;;9.72;56.55;103163.00;2112624;27;47668;-61
2022/03/18 03:35:29;;;;;;;;;50.20;43.00;;;;;9.70;56.35;103167.38;2112617;27;48287;-61
2022/03/18 03:36:30;;;;;;;;;48.00;41.00;;;;;9.69;56.68;103168.25;2113067;27;47990;-59
2022/03/18 03:37:31;;;;;;;;;40.50;37.00;;;;;9.68;56.50;103166.47;2112518;27;47367;-60
2022/03/18 03:38:31;;;;;;;;;48.25;39.25;;;;;9.68;57.05;103160.25;2112756;27;47519;-58
2022/03/18 03:39:31;;;;;;;;;35.00;33.25;;;;;9.67;56.74;103162.03;2112525;27;48126;-60
2022/03/18 03:40:32;;;;;;;;;49.50;40.00;;;;;9.68;56.67;103161.16;2114264;27;47339;-61
2022/03/18 03:41:33;;;;;;;;;49.00;40.60;;;;;9.67;56.52;103159.38;2114070;27;47594;-60
2022/03/18 03:42:34;;;;;;;;;46.25;40.75;;;;;9.66;56.42;103160.22;2105449;28;47562;-61
2022/03/18 03:43:34;;;;;;;;;48.75;41.00;;;;;9.66;56.66;103160.22;2105299;28;47602;-61
2022/03/18 03:44:34;;;;;;;;;44.00;38.00;;;;;9.67;56.73;103153.16;2107952;27;47728;-60
2022/03/18 03:45:36;;;;;;;;;49.25;39.50;;;;;9.67;56.85;103156.72;2106344;27;47472;-60
2022/03/18 03:46:37;;;;;;;;;49.60;42.00;;;;;9.67;56.92;103153.16;2113935;27;47662;-61
2022/03/18 03:47:38;;;;;;;;;49.25;39.00;;;;;9.67;56.86;103150.53;2113904;27;47266;-59
2022/03/18 03:48:39;;;;;;;;;49.20;40.20;;;;;9.65;56.80;103150.47;2114113;27;47472;-59
2022/03/18 03:49:39;;;;;;;;;49.00;41.75;;;;;9.66;56.66;103154.94;2113871;27;47673;-61
2022/03/18 03:50:40;;;;;;;;;46.25;38.75;;;;;9.68;56.79;103153.19;2114220;27;47571;-61
2022/03/18 03:51:41;;;;;;;;;45.75;37.50;;;;;9.68;56.60;103154.97;2114496;27;47208;-59
2022/03/18 03:52:42;;;;;;;;;43.00;36.75;;;;;9.68;56.95;103154.97;2114081;27;48366;-60
2022/03/18 03:53:42;;;;;;;;;45.00;38.00;;;;;9.66;56.84;103157.59;2113768;27;46763;-60
2022/03/18 03:54:43;;;;;;;;;44.00;37.25;;;;;9.67;56.69;103163.78;2114390;27;47876;-60
2022/03/18 03:55:43;;;;;;;;;49.25;39.25;;;;;9.66;56.68;103157.59;2114103;27;47381;-59
2022/03/18 03:56:44;;;;;;;;;43.50;36.00;;;;;9.67;56.84;103169.97;2087687;28;47917;-60
2022/03/18 03:57:44;;;;;;;;;45.50;38.25;;;;;9.66;56.70;103160.22;2087630;28;47241;-61
2022/03/18 03:58:44;;;;;;;;;45.00;38.75;;;;;9.66;56.92;103157.59;2095717;28;47588;-58
2022/03/18 03:59:45;;;;;;;;;45.00;39.00;;;;;9.66;56.77;103165.53;2096151;28;47620;-58
2022/03/18 04:00:45;;;;;;;;;48.25;40.00;;;;;9.65;56.70;103161.06;2113877;27;47682;-59
2022/03/18 04:01:46;;;;;;;;;41.50;36.25;;;;;9.65;56.86;103161.06;2114218;27;47450;-58
2022/03/18 04:02:46;;;;;;;;;46.25;39.00;;;;;9.65;56.78;103166.38;2113831;27;47402;-58
2022/03/18 04:03:47;;;;;;;;;47.00;36.25;;;;;9.66;56.80;103169.94;2095554;28;47424;-59
2022/03/18 04:04:48;;;;;;;;;36.75;34.00;;;;;9.64;56.65;103169.00;2095903;27;47200;-59
2022/03/18 04:05:49;;;;;;;;;41.00;35.60;;;;;9.64;56.64;103172.53;2114616;27;45180;-60
2022/03/18 04:06:49;;;;;;;;;38.75;34.75;;;;;9.63;56.81;103177.81;2113940;27;48471;-60
2022/03/18 04:07:50;;;;;;;;;37.50;34.50;;;;;9.63;56.72;103172.50;2114056;27;47655;-60
2022/03/18 04:08:50;;;;;;;;;44.25;36.75;;;;;9.61;56.53;103169.81;2113994;27;47707;-57
2022/03/18 04:09:54;;;;;;;;;35.75;34.50;;;;;9.61;56.69;103182.19;2114368;27;47212;-62
2022/03/18 04:10:54;;;;;;;;;40.00;35.40;;;;;9.61;56.65;103177.78;2113946;27;47807;-59
2022/03/18 04:11:54;;;;;;;;;33.00;31.25;;;;;9.58;56.70;103177.72;2103663;27;47925;-59
2022/03/18 04:12:55;;;;;;;;;38.25;34.75;;;;;9.58;56.74;103175.06;2103150;28;47326;-60
2022/03/18 04:13:56;;;;;;;;;33.50;32.00;;;;;9.56;56.71;103171.50;2114050;27;47607;-59
2022/03/18 04:14:57;;;;;;;;;37.00;34.25;;;;;9.57;56.98;103175.03;2113857;27;47055;-59
2022/03/18 04:15:57;;;;;;;;;40.25;35.50;;;;;9.56;56.77;103171.50;2113921;27;47798;-59
2022/03/18 04:16:57;;;;;;;;;32.50;30.75;;;;;9.55;56.72;103180.31;2113884;27;47614;-58
2022/03/18 04:17:58;;;;;;;;;38.00;34.00;;;;;9.54;56.67;103175.88;2113694;27;47830;-54
2022/03/18 04:18:58;;;;;;;;;36.00;31.00;;;;;9.55;56.61;103180.31;2113539;27;47651;-59
2022/03/18 04:19:59;;;;;;;;;34.75;32.75;;;;;9.52;56.65;103174.03;2113818;27;47481;-61
2022/03/18 04:20:59;;;;;;;;;32.50;29.50;;;;;9.50;56.77;103171.34;2114139;27;47656;-59
2022/03/18 04:21:59;;;;;;;;;31.75;31.00;;;;;9.50;56.56;103171.34;2114029;27;47869;-59
2022/03/18 04:23:01;;;;;;;;;32.75;30.00;;;;;9.49;56.70;103171.31;2113686;27;47521;-59
2022/03/18 04:24:02;;;;;;;;;31.20;27.00;;;;;9.48;56.52;103177.47;2104778;28;47151;-59
2022/03/18 04:25:03;;;;;;;;;35.00;31.75;;;;;9.46;56.48;103174.81;2104573;28;47868;-58
2022/03/18 04:26:03;;;;;;;;;37.00;34.50;;;;;9.46;56.70;103176.56;2106051;27;47810;-59
2022/03/18 04:27:04;;;;;;;;;37.00;35.00;;;;;9.47;56.69;103181.00;2114170;27;47984;-59
2022/03/18 04:28:04;;;;;;;;;31.75;30.00;;;;;9.45;56.82;103183.63;2113824;27;47781;-60
2022/03/18 04:29:05;;;;;;;;;34.75;31.25;;;;;9.46;56.63;103185.41;2113875;27;47181;-60
2022/03/18 04:30:09;;;;;;;;;30.25;28.75;;;;;9.45;56.75;103191.56;2113828;27;47940;-59
2022/03/18 04:31:09;;;;;;;;;29.40;26.40;;;;;9.46;56.81;103192.47;2114009;27;47696;-60
2022/03/18 04:32:11;;;;;;;;;42.00;35.25;;;;;9.46;56.45;103192.47;2113897;27;47280;-59
2022/03/18 04:33:12;;;;;;;;;32.60;31.20;;;;;9.44;56.58;103198.63;2113644;27;47640;-59
2022/03/18 04:34:12;;;;;;;;;31.00;28.50;;;;;9.43;56.68;103207.44;2104793;28;47843;-60
2022/03/18 04:35:13;;;;;;;;;38.50;35.25;;;;;9.42;56.46;103199.47;2105042;27;47901;-58
2022/03/18 04:36:13;;;;;;;;;35.00;30.25;;;;;9.41;56.61;103200.31;2114274;27;47490;-60
2022/03/18 04:37:14;;;;;;;;;38.25;34.50;;;;;9.37;56.66;103203.75;2113912;27;47842;-60
2022/03/18 04:38:14;;;;;;;;;34.75;32.00;;;;;9.36;56.58;103202.84;2113825;27;47806;-58
2022/03/18 04:39:14;;;;;;;;;32.75;30.75;;;;;9.33;56.65;103208.06;2114009;27;47320;-58
2022/03/18 04:40:15;;;;;;;;;29.00;28.75;;;;;9.31;56.54;103214.22;2113707;27;47675;-60
2022/03/18 04:41:16;;;;;;;;;30.00;28.20;;;;;9.29;56.51;103210.63;2113541;27;47478;-60
2022/03/18 04:42:16;;;;;;;;;28.75;28.00;;;;;9.26;56.63;103208.78;2114123;27;47465;-62
2022/03/18 04:43:17;;;;;;;;;33.00;31.25;;;;;9.25;56.76;103204.34;2113709;27;47539;-58
2022/03/18 04:44:17;;;;;;;;;29.00;26.00;;;;;9.24;56.68;103204.31;2113648;27;47589;-59